GMFU weather

Fes Sefrou Airport
Fes, Fès Province, Morocco

Public forecast

Using degrees Celsius for public forecast. Weather courtesy of forecast.io.

Closest aviation weather report (METAR) to Fes Sefrou Airport

Closest report is Saïss Airport, 4.9 nm (9.1 km) S. Retrieved 2020/08/08 22:00 UTC (2 hours ago):

GMFF 082200Z 26005KT CAVOK 28/20 Q1020 NOSIG

Closest aviation forecast (TAF) to Fes Sefrou Airport

Closest forecast is Saïss Airport, 4.9 nm (9.1 km) S. Retrieved 2020/08/08 18:18 UTC (6 hours ago):

TAF TAF GMFF 081700Z 0818/0924 32010KT 9999 SCT033 FEW040CB PROB30 TEMPO 0818/0822 TSRA BECMG 0822/0823 18006KT CAVOK